sensor_id;sensor_type;location;lat;lon;timestamp;pressure;altitude;pressure_sealevel;temperature;humidity
19843;BME280;10082;51.038;6.992;2023-03-19T00:00:41;112171.53;;;-144.33;100.00
19843;BME280;10082;51.038;6.992;2023-03-19T00:03:08;112171.53;;;-144.33;100.00
19843;BME280;10082;51.038;6.992;2023-03-19T00:05:35;112171.53;;;-144.33;100.00
19843;BME280;10082;51.038;6.992;2023-03-19T00:08:04;112171.53;;;-144.33;100.00
19843;BME280;10082;51.038;6.992;2023-03-19T00:10:38;112171.53;;;-144.33;100.00
19843;BME280;10082;51.038;6.992;2023-03-19T00:13:10;112171.53;;;-144.33;100.00
19843;BME280;10082;51.038;6.992;2023-03-19T00:15:39;112171.53;;;-144.33;100.00
19843;BME280;10082;51.038;6.992;2023-03-19T00:18:06;112171.53;;;-144.33;100.00
19843;BME280;10082;51.038;6.992;2023-03-19T00:20:35;112171.53;;;-144.33;100.00
19843;BME280;10082;51.038;6.992;2023-03-19T00:23:02;112171.53;;;-144.33;100.00
19843;BME280;10082;51.038;6.992;2023-03-19T00:25:31;112171.53;;;-144.33;100.00
19843;BME280;10082;51.038;6.992;2023-03-19T00:27:59;112171.53;;;-144.33;100.00
19843;BME280;10082;51.038;6.992;2023-03-19T00:30:28;112171.53;;;-144.33;100.00
19843;BME280;10082;51.038;6.992;2023-03-19T00:32:55;112171.53;;;-144.33;100.00
19843;BME280;10082;51.038;6.992;2023-03-19T00:35:22;112171.53;;;-144.33;100.00
19843;BME280;10082;51.038;6.992;2023-03-19T00:37:50;112171.53;;;-144.33;100.00
19843;BME280;10082;51.038;6.992;2023-03-19T00:40:17;112171.53;;;-144.33;100.00
19843;BME280;10082;51.038;6.992;2023-03-19T00:42:45;112171.53;;;-144.33;100.00
19843;BME280;10082;51.038;6.992;2023-03-19T00:45:14;112171.53;;;-144.33;100.00
19843;BME280;10082;51.038;6.992;2023-03-19T00:47:43;112171.53;;;-144.33;100.00
19843;BME280;10082;51.038;6.992;2023-03-19T00:50:12;112171.53;;;-144.33;100.00
19843;BME280;10082;51.038;6.992;2023-03-19T00:52:41;112171.53;;;-144.33;100.00
19843;BME280;10082;51.038;6.992;2023-03-19T00:55:08;112171.53;;;-144.33;100.00
19843;BME280;10082;51.038;6.992;2023-03-19T00:57:36;112171.53;;;-144.33;100.00
19843;BME280;10082;51.038;6.992;2023-03-19T01:00:06;112171.53;;;-144.33;100.00
19843;BME280;10082;51.038;6.992;2023-03-19T01:02:35;112171.53;;;-144.33;100.00
19843;BME280;10082;51.038;6.992;2023-03-19T01:05:07;112171.53;;;-144.33;100.00
19843;BME280;10082;51.038;6.992;2023-03-19T01:07:34;112171.53;;;-144.33;100.00
19843;BME280;10082;51.038;6.992;2023-03-19T01:10:02;112171.53;;;-144.33;100.00
19843;BME280;10082;51.038;6.992;2023-03-19T01:12:30;112171.53;;;-144.33;100.00
19843;BME280;10082;51.038;6.992;2023-03-19T01:14:57;112171.53;;;-144.33;100.00
19843;BME280;10082;51.038;6.992;2023-03-19T01:17:25;112171.53;;;-144.33;100.00
19843;BME280;10082;51.038;6.992;2023-03-19T01:19:53;112171.53;;;-144.33;100.00
19843;BME280;10082;51.038;6.992;2023-03-19T01:22:22;112171.53;;;-144.33;100.00
19843;BME280;10082;51.038;6.992;2023-03-19T01:24:55;112171.53;;;-144.33;100.00
19843;BME280;10082;51.038;6.992;2023-03-19T01:27:22;112171.53;;;-144.33;100.00
19843;BME280;10082;51.038;6.992;2023-03-19T01:29:50;112171.53;;;-144.33;100.00
19843;BME280;10082;51.038;6.992;2023-03-19T01:32:28;112171.53;;;-144.33;100.00
19843;BME280;10082;51.038;6.992;2023-03-19T01:35:17;112171.53;;;-144.33;100.00
19843;BME280;10082;51.038;6.992;2023-03-19T01:37:47;112171.53;;;-144.33;100.00
19843;BME280;10082;51.038;6.992;2023-03-19T01:40:14;112171.53;;;-144.33;100.00
19843;BME280;10082;51.038;6.992;2023-03-19T01:42:53;112171.53;;;-144.33;100.00
19843;BME280;10082;51.038;6.992;2023-03-19T01:45:43;112171.53;;;-144.33;100.00
19843;BME280;10082;51.038;6.992;2023-03-19T01:48:43;112171.53;;;-144.33;100.00
19843;BME280;10082;51.038;6.992;2023-03-19T01:51:17;112171.53;;;-144.33;100.00
19843;BME280;10082;51.038;6.992;2023-03-19T01:54:09;112171.53;;;-144.33;100.00
19843;BME280;10082;51.038;6.992;2023-03-19T01:56:53;112171.53;;;-144.33;100.00
19843;BME280;10082;51.038;6.992;2023-03-19T01:59:43;112171.53;;;-144.33;100.00
19843;BME280;10082;51.038;6.992;2023-03-19T02:02:42;112171.53;;;-144.33;100.00
19843;BME280;10082;51.038;6.992;2023-03-19T02:05:29;112171.53;;;-144.33;100.00
19843;BME280;10082;51.038;6.992;2023-03-19T02:08:05;112171.53;;;-144.33;100.00
19843;BME280;10082;51.038;6.992;2023-03-19T02:10:36;112171.53;;;-144.33;100.00
19843;BME280;10082;51.038;6.992;2023-03-19T02:13:06;112171.53;;;-144.33;100.00
19843;BME280;10082;51.038;6.992;2023-03-19T02:15:33;112171.53;;;-144.33;100.00
19843;BME280;10082;51.038;6.992;2023-03-19T02:18:01;112171.53;;;-144.33;100.00
19843;BME280;10082;51.038;6.992;2023-03-19T02:20:31;112171.53;;;-144.33;100.00
19843;BME280;10082;51.038;6.992;2023-03-19T02:23:08;112171.53;;;-144.33;100.00
19843;BME280;10082;51.038;6.992;2023-03-19T02:25:51;112171.53;;;-144.33;100.00
19843;BME280;10082;51.038;6.992;2023-03-19T02:28:22;112171.53;;;-144.33;100.00
19843;BME280;10082;51.038;6.992;2023-03-19T02:30:52;112171.53;;;-144.33;100.00
19843;BME280;10082;51.038;6.992;2023-03-19T02:33:20;112171.53;;;-144.33;100.00
19843;BME280;10082;51.038;6.992;2023-03-19T02:35:49;112171.53;;;-144.33;100.00
19843;BME280;10082;51.038;6.992;2023-03-19T02:38:18;112171.53;;;-144.33;100.00
19843;BME280;10082;51.038;6.992;2023-03-19T02:40:53;112171.53;;;-144.33;100.00
19843;BME280;10082;51.038;6.992;2023-03-19T02:43:24;112171.53;;;-144.33;100.00
19843;BME280;10082;51.038;6.992;2023-03-19T02:45:52;112171.53;;;-144.33;100.00
19843;BME280;10082;51.038;6.992;2023-03-19T02:48:20;112171.53;;;-144.33;100.00
19843;BME280;10082;51.038;6.992;2023-03-19T02:50:48;112171.53;;;-144.33;100.00
19843;BME280;10082;51.038;6.992;2023-03-19T02:53:15;112171.53;;;-144.33;100.00
19843;BME280;10082;51.038;6.992;2023-03-19T02:55:43;112171.53;;;-144.33;100.00
19843;BME280;10082;51.038;6.992;2023-03-19T02:58:13;112171.53;;;-144.33;100.00
19843;BME280;10082;51.038;6.992;2023-03-19T03:00:40;112171.53;;;-144.33;100.00
19843;BME280;10082;51.038;6.992;2023-03-19T03:03:08;112171.53;;;-144.33;100.00
19843;BME280;10082;51.038;6.992;2023-03-19T03:05:36;112171.53;;;-144.33;100.00
19843;BME280;10082;51.038;6.992;2023-03-19T03:08:04;112171.53;;;-144.33;100.00
19843;BME280;10082;51.038;6.992;2023-03-19T03:10:31;112171.53;;;-144.33;100.00
19843;BME280;10082;51.038;6.992;2023-03-19T03:12:59;112171.53;;;-144.33;100.00
19843;BME280;10082;51.038;6.992;2023-03-19T03:15:28;112171.53;;;-144.33;100.00
19843;BME280;10082;51.038;6.992;2023-03-19T03:17:56;112171.53;;;-144.33;100.00
19843;BME280;10082;51.038;6.992;2023-03-19T03:20:23;112171.53;;;-144.33;100.00
19843;BME280;10082;51.038;6.992;2023-03-19T03:22:51;112171.53;;;-144.33;100.00
19843;BME280;10082;51.038;6.992;2023-03-19T03:25:19;112171.53;;;-144.33;100.00
19843;BME280;10082;51.038;6.992;2023-03-19T03:27:47;112171.53;;;-144.33;100.00
19843;BME280;10082;51.038;6.992;2023-03-19T03:30:15;112171.53;;;-144.33;100.00
19843;BME280;10082;51.038;6.992;2023-03-19T03:32:44;112171.53;;;-144.33;100.00
19843;BME280;10082;51.038;6.992;2023-03-19T03:35:11;112171.53;;;-144.33;100.00
19843;BME280;10082;51.038;6.992;2023-03-19T03:37:46;112171.53;;;-144.33;100.00
19843;BME280;10082;51.038;6.992;2023-03-19T03:40:14;111106.81;;;-144.33;100.00
19843;BME280;10082;51.038;6.992;2023-03-19T03:42:42;109340.25;;;-144.33;100.00
19843;BME280;10082;51.038;6.992;2023-03-19T03:45:11;107783.59;;;-144.33;100.00
19843;BME280;10082;51.038;6.992;2023-03-19T03:47:44;106500.88;;;-144.33;100.00
19843;BME280;10082;51.038;6.992;2023-03-19T03:50:12;105079.94;;;-144.33;100.00
19843;BME280;10082;51.038;6.992;2023-03-19T03:52:40;103988.94;;;-144.33;100.00
19843;BME280;10082;51.038;6.992;2023-03-19T03:55:08;102520.66;;;-144.33;100.00
19843;BME280;10082;51.038;6.992;2023-03-19T03:57:36;101219.56;;;-144.33;100.00
19843;BME280;10082;51.038;6.992;2023-03-19T04:00:04;100916.41;;;-144.33;100.00
19843;BME280;10082;51.038;6.992;2023-03-19T04:02:38;100647.44;;;-144.33;100.00
19843;BME280;10082;51.038;6.992;2023-03-19T04:05:08;100117.53;;;-144.33;100.00
19843;BME280;10082;51.038;6.992;2023-03-19T04:07:36;99698.09;;;-144.33;100.00
19843;BME280;10082;51.038;6.992;2023-03-19T04:10:04;99238.56;;;-144.33;100.00
19843;BME280;10082;51.038;6.992;2023-03-19T04:12:32;98963.66;;;-144.33;100.00
19843;BME280;10082;51.038;6.992;2023-03-19T04:15:02;98608.53;;;-144.33;100.00
19843;BME280;10082;51.038;6.992;2023-03-19T04:17:30;97621.56;;;-144.33;100.00
19843;BME280;10082;51.038;6.992;2023-03-19T04:19:57;97453.09;;;-144.33;100.00
19843;BME280;10082;51.038;6.992;2023-03-19T04:22:27;97667.69;;;-144.33;100.00
19843;BME280;10082;51.038;6.992;2023-03-19T04:24:54;97280.59;;;-144.33;100.00
19843;BME280;10082;51.038;6.992;2023-03-19T04:27:21;97824.16;;;-144.33;100.00
19843;BME280;10082;51.038;6.992;2023-03-19T04:29:48;98263.47;;;-144.33;100.00
19843;BME280;10082;51.038;6.992;2023-03-19T04:32:16;100089.44;;;-144.33;100.00
19843;BME280;10082;51.038;6.992;2023-03-19T04:34:45;100878.28;;;-144.33;100.00
19843;BME280;10082;51.038;6.992;2023-03-19T04:37:13;101101.09;;;-144.33;100.00
19843;BME280;10082;51.038;6.992;2023-03-19T04:39:47;102538.75;;;-144.33;100.00
19843;BME280;10082;51.038;6.992;2023-03-19T04:42:16;103496.78;;;-144.33;100.00
19843;BME280;10082;51.038;6.992;2023-03-19T04:44:50;104565.53;;;-144.33;100.00
19843;BME280;10082;51.038;6.992;2023-03-19T04:47:18;105453.72;;;-144.33;100.00
19843;BME280;10082;51.038;6.992;2023-03-19T04:49:52;106613.47;;;-144.33;100.00
19843;BME280;10082;51.038;6.992;2023-03-19T04:52:22;107727.28;;;-144.33;100.00
19843;BME280;10082;51.038;6.992;2023-03-19T04:54:51;108392.91;;;-144.33;100.00
19843;BME280;10082;51.038;6.992;2023-03-19T04:57:19;108348.66;;;-144.33;100.00
19843;BME280;10082;51.038;6.992;2023-03-19T04:59:47;108270.22;;;-144.33;100.00
19843;BME280;10082;51.038;6.992;2023-03-19T05:02:15;107930.38;;;-144.33;100.00
19843;BME280;10082;51.038;6.992;2023-03-19T05:04:43;107896.19;;;-144.33;100.00
19843;BME280;10082;51.038;6.992;2023-03-19T05:07:13;106842.63;;;-144.33;100.00
19843;BME280;10082;51.038;6.992;2023-03-19T05:09:41;105855.66;;;-144.33;100.00
19843;BME280;10082;51.038;6.992;2023-03-19T05:12:11;104455.03;;;-144.33;100.00
19843;BME280;10082;51.038;6.992;2023-03-19T05:14:48;103390.31;;;-144.33;100.00
19843;BME280;10082;51.038;6.992;2023-03-19T05:17:20;101594.97;;;-144.33;100.00
19843;BME280;10082;51.038;6.992;2023-03-19T05:19:57;99856.63;;;-144.33;100.00
19843;BME280;10082;51.038;6.992;2023-03-19T05:22:25;97784.03;;;-144.33;100.00
19843;BME280;10082;51.038;6.992;2023-03-19T05:24:54;95862.88;;;-144.33;100.00
19843;BME280;10082;51.038;6.992;2023-03-19T05:27:24;94644.06;;;-144.33;100.00
19843;BME280;10082;51.038;6.992;2023-03-19T05:30:12;93539.84;;;-144.33;100.00
19843;BME280;10082;51.038;6.992;2023-03-19T05:33:00;92620.22;;;-144.33;100.00
19843;BME280;10082;51.038;6.992;2023-03-19T05:35:38;91955.19;;;-144.33;100.00
19843;BME280;10082;51.038;6.992;2023-03-19T05:38:24;91238.16;;;-144.33;100.00
19843;BME280;10082;51.038;6.992;2023-03-19T05:41:02;90218.97;;;-144.33;100.00
19843;BME280;10082;51.038;6.992;2023-03-19T05:43:39;88993.84;;;-144.33;100.00
19843;BME280;10082;51.038;6.992;2023-03-19T05:46:11;88497.50;;;-144.33;100.00
19843;BME280;10082;51.038;6.992;2023-03-19T05:48:39;87925.19;;;-144.33;100.00
19843;BME280;10082;51.038;6.992;2023-03-19T05:51:07;87320.94;;;-144.33;100.00
19843;BME280;10082;51.038;6.992;2023-03-19T05:53:39;86668.78;;;-144.33;100.00
19843;BME280;10082;51.038;6.992;2023-03-19T05:56:25;86692.78;;;-144.33;100.00
19843;BME280;10082;51.038;6.992;2023-03-19T05:59:13;86080.72;;;-144.33;100.00
19843;BME280;10082;51.038;6.992;2023-03-19T06:01:45;86388.72;;;-144.33;100.00
19843;BME280;10082;51.038;6.992;2023-03-19T06:04:13;86750.78;;;-144.33;100.00
19843;BME280;10082;51.038;6.992;2023-03-19T06:06:40;87104.88;;;-144.33;100.00
19843;BME280;10082;51.038;6.992;2023-03-19T06:09:07;86000.72;;;-144.33;100.00
19843;BME280;10082;51.038;6.992;2023-03-19T06:11:38;85662.72;;;-144.33;100.00
19843;BME280;10082;51.038;6.992;2023-03-19T06:14:29;84502.97;;;-144.33;100.00
19843;BME280;10082;51.038;6.992;2023-03-19T06:17:28;86216.72;;;-144.33;100.00
19843;BME280;10082;51.038;6.992;2023-03-19T06:20:00;85276.75;;;-144.33;100.00
19843;BME280;10082;51.038;6.992;2023-03-19T06:22:28;85456.75;;;-144.33;100.00
19843;BME280;10082;51.038;6.992;2023-03-19T06:24:55;85030.81;;;-144.33;100.00
19843;BME280;10082;51.038;6.992;2023-03-19T06:27:22;85998.72;;;-144.33;100.00
19843;BME280;10082;51.038;6.992;2023-03-19T06:29:53;86396.72;;;-144.33;100.00
19843;BME280;10082;51.038;6.992;2023-03-19T06:32:25;86626.75;;;-144.33;100.00
19843;BME280;10082;51.038;6.992;2023-03-19T06:34:54;86062.72;;;-144.33;100.00
19843;BME280;10082;51.038;6.992;2023-03-19T06:37:21;83353.53;;;-144.33;100.00
19843;BME280;10082;51.038;6.992;2023-03-19T06:39:51;80827.97;;;-144.33;100.00
19843;BME280;10082;51.038;6.992;2023-03-19T06:42:19;82394.28;;;-144.33;100.00
19843;BME280;10082;51.038;6.992;2023-03-19T06:44:47;84177.09;;;-144.33;100.00
19843;BME280;10082;51.038;6.992;2023-03-19T06:47:16;84149.13;;;-144.33;100.00
19843;BME280;10082;51.038;6.992;2023-03-19T06:49:44;83993.19;;;-144.33;100.00
19843;BME280;10082;51.038;6.992;2023-03-19T06:52:11;84083.16;;;-144.33;100.00
19843;BME280;10082;51.038;6.992;2023-03-19T06:54:39;83699.34;;;-144.33;100.00
19843;BME280;10082;51.038;6.992;2023-03-19T06:57:06;84323.03;;;-144.33;100.00
19843;BME280;10082;51.038;6.992;2023-03-19T06:59:33;84441.00;;;-144.33;100.00
19843;BME280;10082;51.038;6.992;2023-03-19T07:02:00;84984.81;;;-144.33;100.00
19843;BME280;10082;51.038;6.992;2023-03-19T07:04:30;85180.78;;;-144.33;100.00
19843;BME280;10082;51.038;6.992;2023-03-19T07:06:58;86316.72;;;-144.33;100.00
19843;BME280;10082;51.038;6.992;2023-03-19T07:09:26;86380.72;;;-144.33;100.00
19843;BME280;10082;51.038;6.992;2023-03-19T07:11:53;87593.03;;;-144.33;100.00
19843;BME280;10082;51.038;6.992;2023-03-19T07:14:21;88301.41;;;-144.33;100.00
19843;BME280;10082;51.038;6.992;2023-03-19T07:16:48;88197.34;;;-144.33;100.00
19843;BME280;10082;51.038;6.992;2023-03-19T07:19:15;87743.09;;;-144.33;100.00
19843;BME280;10082;51.038;6.992;2023-03-19T07:21:44;87320.94;;;-144.33;100.00
19843;BME280;10082;51.038;6.992;2023-03-19T07:24:11;87977.22;;;-144.33;100.00
19843;BME280;10082;51.038;6.992;2023-03-19T07:26:38;87771.13;;;-144.33;100.00
19843;BME280;10082;51.038;6.992;2023-03-19T07:29:07;87745.09;;;-144.33;100.00
19843;BME280;10082;51.038;6.992;2023-03-19T07:31:34;87567.03;;;-144.33;100.00
19843;BME280;10082;51.038;6.992;2023-03-19T07:34:01;88057.25;;;-144.33;100.00
19843;BME280;10082;51.038;6.992;2023-03-19T07:36:28;87977.22;;;-144.33;100.00
19843;BME280;10082;51.038;6.992;2023-03-19T07:38:58;87773.13;;;-144.33;100.00
19843;BME280;10082;51.038;6.992;2023-03-19T07:41:25;87647.06;;;-144.33;100.00
19843;BME280;10082;51.038;6.992;2023-03-19T07:43:52;87763.13;;;-144.33;100.00
19843;BME280;10082;51.038;6.992;2023-03-19T07:46:19;87561.03;;;-144.33;100.00
19843;BME280;10082;51.038;6.992;2023-03-19T07:48:47;87721.09;;;-144.33;100.00
19843;BME280;10082;51.038;6.992;2023-03-19T07:51:14;87671.06;;;-144.33;100.00
19843;BME280;10082;51.038;6.992;2023-03-19T07:53:41;86888.81;;;-144.33;100.00
19843;BME280;10082;51.038;6.992;2023-03-19T07:56:10;86462.75;;;-144.33;100.00
19843;BME280;10082;51.038;6.992;2023-03-19T07:58:38;86428.72;;;-144.33;100.00
19843;BME280;10082;51.038;6.992;2023-03-19T08:01:05;87150.88;;;-144.33;100.00
19843;BME280;10082;51.038;6.992;2023-03-19T08:03:32;89726.47;;;-144.33;100.00
19843;BME280;10082;51.038;6.992;2023-03-19T08:05:59;92520.06;;;-144.33;100.00
19843;BME280;10082;51.038;6.992;2023-03-19T08:08:27;91925.13;;;-144.33;100.00
19843;BME280;10082;51.038;6.992;2023-03-19T08:10:54;91464.47;;;-144.33;100.00
19843;BME280;10082;51.038;6.992;2023-03-19T08:13:23;91991.22;;;-144.33;100.00
19843;BME280;10082;51.038;6.992;2023-03-19T08:15:50;93688.13;;;-144.33;100.00
19843;BME280;10082;51.038;6.992;2023-03-19T08:18:18;96197.72;;;-144.33;100.00
19843;BME280;10082;51.038;6.992;2023-03-19T08:20:45;100804.00;;;-144.33;100.00
19843;BME280;10082;51.038;6.992;2023-03-19T08:23:18;102231.50;;;-144.33;100.00
19843;BME280;10082;51.038;6.992;2023-03-19T08:25:45;104292.28;;;-144.33;100.00
19843;BME280;10082;51.038;6.992;2023-03-19T08:28:13;106480.78;;;-144.33;100.00
19843;BME280;10082;51.038;6.992;2023-03-19T08:30:42;109010.38;;;-144.33;100.00
19843;BME280;10082;51.038;6.992;2023-03-19T08:33:09;109573.59;;;-144.33;100.00
19843;BME280;10082;51.038;6.992;2023-03-19T08:35:36;110356.25;;;-144.33;100.00
19843;BME280;10082;51.038;6.992;2023-03-19T08:38:04;110491.06;;;-144.33;100.00
19843;BME280;10082;51.038;6.992;2023-03-19T08:40:31;110925.69;;;-144.33;100.00
19843;BME280;10082;51.038;6.992;2023-03-19T08:42:58;110513.19;;;-144.33;100.00
19843;BME280;10082;51.038;6.992;2023-03-19T08:45:26;110446.78;;;-144.33;100.00
19843;BME280;10082;51.038;6.992;2023-03-19T08:47:55;110889.47;;;-144.33;100.00
19843;BME280;10082;51.038;6.992;2023-03-19T08:50:23;112171.53;;;-144.33;100.00
19843;BME280;10082;51.038;6.992;2023-03-19T08:52:51;112171.53;;;-144.33;100.00
19843;BME280;10082;51.038;6.992;2023-03-19T08:55:19;112171.53;;;-144.33;100.00
19843;BME280;10082;51.038;6.992;2023-03-19T08:57:46;112171.53;;;-144.33;100.00
19843;BME280;10082;51.038;6.992;2023-03-19T09:00:14;112171.53;;;-144.33;100.00
19843;BME280;10082;51.038;6.992;2023-03-19T09:02:45;112171.53;;;-144.33;100.00
19843;BME280;10082;51.038;6.992;2023-03-19T09:05:14;112171.53;;;-144.33;100.00
19843;BME280;10082;51.038;6.992;2023-03-19T09:07:44;112171.53;;;-144.33;100.00
19843;BME280;10082;51.038;6.992;2023-03-19T09:10:11;112171.53;;;-144.33;100.00
19843;BME280;10082;51.038;6.992;2023-03-19T09:12:38;112171.53;;;-144.33;100.00
19843;BME280;10082;51.038;6.992;2023-03-19T09:15:06;112171.53;;;-144.33;100.00
19843;BME280;10082;51.038;6.992;2023-03-19T09:17:33;112171.53;;;-144.33;100.00
19843;BME280;10082;51.038;6.992;2023-03-19T09:20:01;112171.53;;;-144.33;100.00
19843;BME280;10082;51.038;6.992;2023-03-19T09:22:32;112171.53;;;-144.33;100.00
19843;BME280;10082;51.038;6.992;2023-03-19T09:24:59;112171.53;;;-144.33;100.00
19843;BME280;10082;51.038;6.992;2023-03-19T09:27:26;112171.53;;;-144.33;100.00
19843;BME280;10082;51.038;6.992;2023-03-19T09:29:54;112171.53;;;-144.33;100.00
19843;BME280;10082;51.038;6.992;2023-03-19T09:32:22;112171.53;;;-144.33;100.00
19843;BME280;10082;51.038;6.992;2023-03-19T09:34:49;112171.53;;;-144.33;100.00
19843;BME280;10082;51.038;6.992;2023-03-19T09:37:18;112171.53;;;-144.33;100.00
19843;BME280;10082;51.038;6.992;2023-03-19T09:39:47;112171.53;;;-144.33;100.00
19843;BME280;10082;51.038;6.992;2023-03-19T09:42:26;112171.53;;;-144.33;100.00
19843;BME280;10082;51.038;6.992;2023-03-19T09:44:58;112171.53;;;-144.33;100.00
19843;BME280;10082;51.038;6.992;2023-03-19T09:47:27;112171.53;;;-144.33;100.00
19843;BME280;10082;51.038;6.992;2023-03-19T09:49:58;112171.53;;;-144.33;100.00
19843;BME280;10082;51.038;6.992;2023-03-19T09:52:33;112171.53;;;-144.33;100.00
19843;BME280;10082;51.038;6.992;2023-03-19T09:55:13;112171.53;;;-144.33;100.00
19843;BME280;10082;51.038;6.992;2023-03-19T09:57:41;112171.53;;;-144.33;100.00
19843;BME280;10082;51.038;6.992;2023-03-19T10:00:19;112171.53;;;-144.33;100.00
19843;BME280;10082;51.038;6.992;2023-03-19T10:02:55;112171.53;;;-144.33;100.00
19843;BME280;10082;51.038;6.992;2023-03-19T10:05:31;112171.53;;;-144.33;100.00
19843;BME280;10082;51.038;6.992;2023-03-19T10:08:30;112171.53;;;-144.33;100.00
19843;BME280;10082;51.038;6.992;2023-03-19T10:11:24;112171.53;;;-144.33;100.00
19843;BME280;10082;51.038;6.992;2023-03-19T10:14:08;112171.53;;;-144.33;100.00
19843;BME280;10082;51.038;6.992;2023-03-19T10:16:40;112171.53;;;-144.33;100.00
19843;BME280;10082;51.038;6.992;2023-03-19T10:19:11;112171.53;;;-144.33;100.00
19843;BME280;10082;51.038;6.992;2023-03-19T10:21:42;112171.53;;;-144.33;100.00
19843;BME280;10082;51.038;6.992;2023-03-19T10:24:20;112171.53;;;-144.33;100.00
19843;BME280;10082;51.038;6.992;2023-03-19T10:26:55;112171.53;;;-144.33;100.00
19843;BME280;10082;51.038;6.992;2023-03-19T10:29:24;112171.53;;;-144.33;100.00
19843;BME280;10082;51.038;6.992;2023-03-19T10:31:58;112171.53;;;-144.33;100.00
19843;BME280;10082;51.038;6.992;2023-03-19T10:34:30;112171.53;;;-144.33;100.00
19843;BME280;10082;51.038;6.992;2023-03-19T10:37:01;112171.53;;;-144.33;100.00
19843;BME280;10082;51.038;6.992;2023-03-19T10:39:31;112171.53;;;-144.33;100.00
19843;BME280;10082;51.038;6.992;2023-03-19T10:42:07;112171.53;;;-144.33;100.00
19843;BME280;10082;51.038;6.992;2023-03-19T10:44:47;112171.53;;;-144.33;100.00
19843;BME280;10082;51.038;6.992;2023-03-19T10:47:16;112171.53;;;-144.33;100.00
19843;BME280;10082;51.038;6.992;2023-03-19T10:49:45;112171.53;;;-144.33;100.00
19843;BME280;10082;51.038;6.992;2023-03-19T10:52:18;112171.53;;;-144.33;100.00
19843;BME280;10082;51.038;6.992;2023-03-19T10:54:47;112171.53;;;-144.33;100.00
19843;BME280;10082;51.038;6.992;2023-03-19T10:57:24;112171.53;;;-144.33;100.00
19843;BME280;10082;51.038;6.992;2023-03-19T10:59:52;112171.53;;;-144.33;100.00
19843;BME280;10082;51.038;6.992;2023-03-19T11:02:21;112171.53;;;-144.33;100.00
19843;BME280;10082;51.038;6.992;2023-03-19T11:05:18;112171.53;;;-144.33;100.00
19843;BME280;10082;51.038;6.992;2023-03-19T11:07:48;112171.53;;;-144.33;100.00
19843;BME280;10082;51.038;6.992;2023-03-19T11:10:16;112171.53;;;-144.33;100.00
19843;BME280;10082;51.038;6.992;2023-03-19T11:12:51;112171.53;;;-144.33;100.00
19843;BME280;10082;51.038;6.992;2023-03-19T11:15:26;112171.53;;;-144.33;100.00
19843;BME280;10082;51.038;6.992;2023-03-19T11:18:00;112171.53;;;-144.33;100.00
19843;BME280;10082;51.038;6.992;2023-03-19T11:20:29;112171.53;;;-144.33;100.00
19843;BME280;10082;51.038;6.992;2023-03-19T11:22:58;112171.53;;;-144.33;100.00
19843;BME280;10082;51.038;6.992;2023-03-19T11:25:28;112171.53;;;-144.33;100.00
19843;BME280;10082;51.038;6.992;2023-03-19T11:27:59;112171.53;;;-144.33;100.00
19843;BME280;10082;51.038;6.992;2023-03-19T11:30:38;112171.53;;;-144.33;100.00
19843;BME280;10082;51.038;6.992;2023-03-19T11:33:18;112171.53;;;-144.33;100.00
19843;BME280;10082;51.038;6.992;2023-03-19T11:36:00;112171.53;;;-144.33;100.00
19843;BME280;10082;51.038;6.992;2023-03-19T11:38:38;112171.53;;;-144.33;100.00
19843;BME280;10082;51.038;6.992;2023-03-19T11:41:13;112171.53;;;-144.33;100.00
19843;BME280;10082;51.038;6.992;2023-03-19T11:43:49;112171.53;;;-144.33;100.00
19843;BME280;10082;51.038;6.992;2023-03-19T11:46:35;112171.53;;;-144.33;100.00
19843;BME280;10082;51.038;6.992;2023-03-19T11:52:12;112171.53;;;-144.33;100.00
19843;BME280;10082;51.038;6.992;2023-03-19T11:54:49;112171.53;;;-144.33;100.00
19843;BME280;10082;51.038;6.992;2023-03-19T11:57:29;112171.53;;;-144.33;100.00
19843;BME280;10082;51.038;6.992;2023-03-19T12:00:19;112171.53;;;-144.33;100.00
19843;BME280;10082;51.038;6.992;2023-03-19T12:05:47;112171.53;;;-144.33;100.00
19843;BME280;10082;51.038;6.992;2023-03-19T12:08:25;112171.53;;;-144.33;100.00
19843;BME280;10082;51.038;6.992;2023-03-19T12:11:02;112171.53;;;-144.33;100.00
19843;BME280;10082;51.038;6.992;2023-03-19T12:13:44;112171.53;;;-144.33;100.00
19843;BME280;10082;51.038;6.992;2023-03-19T12:16:21;112171.53;;;-144.33;100.00
19843;BME280;10082;51.038;6.992;2023-03-19T12:22:06;112171.53;;;-144.33;100.00
19843;BME280;10082;51.038;6.992;2023-03-19T12:24:51;112171.53;;;-144.33;100.00
19843;BME280;10082;51.038;6.992;2023-03-19T12:27:30;112171.53;;;-144.33;100.00
19843;BME280;10082;51.038;6.992;2023-03-19T12:30:02;112171.53;;;-144.33;100.00
19843;BME280;10082;51.038;6.992;2023-03-19T12:33:09;112171.53;;;-144.33;100.00
19843;BME280;10082;51.038;6.992;2023-03-19T12:35:38;112171.53;;;-144.33;100.00
19843;BME280;10082;51.038;6.992;2023-03-19T12:38:11;112171.53;;;-144.33;100.00
19843;BME280;10082;51.038;6.992;2023-03-19T12:40:42;112171.53;;;-144.33;100.00
19843;BME280;10082;51.038;6.992;2023-03-19T12:43:16;112171.53;;;-144.33;100.00
19843;BME280;10082;51.038;6.992;2023-03-19T12:45:46;112171.53;;;-144.33;100.00
19843;BME280;10082;51.038;6.992;2023-03-19T12:48:23;112171.53;;;-144.33;100.00
19843;BME280;10082;51.038;6.992;2023-03-19T12:50:55;112171.53;;;-144.33;100.00
19843;BME280;10082;51.038;6.992;2023-03-19T12:53:30;112171.53;;;-144.33;100.00